sensor_id;sensor_type;location;lat;lon;timestamp;P1;durP1;ratioP1;P2;durP2;ratioP2
21301;SDS011;10810;48.270;9.996;2023-04-24T00:02:25;1.67;;;1.27;;
21301;SDS011;10810;48.270;9.996;2023-04-24T00:04:52;2.27;;;1.23;;
21301;SDS011;10810;48.270;9.996;2023-04-24T00:07:19;2.97;;;1.50;;
21301;SDS011;10810;48.270;9.996;2023-04-24T00:09:46;4.13;;;1.40;;
21301;SDS011;10810;48.270;9.996;2023-04-24T00:12:13;2.37;;;1.30;;
21301;SDS011;10810;48.270;9.996;2023-04-24T00:14:41;2.43;;;1.20;;
21301;SDS011;10810;48.270;9.996;2023-04-24T00:17:10;3.63;;;1.57;;
21301;SDS011;10810;48.270;9.996;2023-04-24T00:19:37;3.00;;;1.30;;
21301;SDS011;10810;48.270;9.996;2023-04-24T00:22:04;1.73;;;1.20;;
21301;SDS011;10810;48.270;9.996;2023-04-24T00:24:31;2.47;;;1.40;;
21301;SDS011;10810;48.270;9.996;2023-04-24T00:26:58;4.57;;;1.23;;
21301;SDS011;10810;48.270;9.996;2023-04-24T00:29:26;1.70;;;1.23;;
21301;SDS011;10810;48.270;9.996;2023-04-24T00:31:53;2.73;;;1.13;;
21301;SDS011;10810;48.270;9.996;2023-04-24T00:34:22;2.63;;;1.17;;
21301;SDS011;10810;48.270;9.996;2023-04-24T00:36:49;2.00;;;1.07;;
21301;SDS011;10810;48.270;9.996;2023-04-24T00:39:17;1.63;;;1.00;;
21301;SDS011;10810;48.270;9.996;2023-04-24T00:41:44;2.00;;;1.20;;
21301;SDS011;10810;48.270;9.996;2023-04-24T00:44:12;3.50;;;1.30;;
21301;SDS011;10810;48.270;9.996;2023-04-24T00:46:39;2.77;;;1.30;;
21301;SDS011;10810;48.270;9.996;2023-04-24T00:49:07;4.13;;;1.20;;
21301;SDS011;10810;48.270;9.996;2023-04-24T00:51:35;3.47;;;1.30;;
21301;SDS011;10810;48.270;9.996;2023-04-24T00:54:02;2.27;;;1.33;;
21301;SDS011;10810;48.270;9.996;2023-04-24T00:56:29;1.87;;;1.13;;
21301;SDS011;10810;48.270;9.996;2023-04-24T00:58:56;2.70;;;1.27;;
21301;SDS011;10810;48.270;9.996;2023-04-24T01:01:24;2.47;;;1.13;;
21301;SDS011;10810;48.270;9.996;2023-04-24T01:03:51;3.67;;;1.37;;
21301;SDS011;10810;48.270;9.996;2023-04-24T01:06:19;3.30;;;1.50;;
21301;SDS011;10810;48.270;9.996;2023-04-24T01:08:49;2.57;;;1.20;;
21301;SDS011;10810;48.270;9.996;2023-04-24T01:11:16;2.50;;;1.30;;
21301;SDS011;10810;48.270;9.996;2023-04-24T01:13:44;1.93;;;1.20;;
21301;SDS011;10810;48.270;9.996;2023-04-24T01:16:13;3.40;;;1.37;;
21301;SDS011;10810;48.270;9.996;2023-04-24T01:18:42;1.17;;;0.90;;
21301;SDS011;10810;48.270;9.996;2023-04-24T01:21:09;2.53;;;1.30;;
21301;SDS011;10810;48.270;9.996;2023-04-24T01:23:42;3.33;;;1.40;;
21301;SDS011;10810;48.270;9.996;2023-04-24T01:26:09;3.60;;;1.20;;
21301;SDS011;10810;48.270;9.996;2023-04-24T01:28:37;3.57;;;1.13;;
21301;SDS011;10810;48.270;9.996;2023-04-24T01:31:04;1.63;;;1.00;;
21301;SDS011;10810;48.270;9.996;2023-04-24T01:33:32;4.73;;;1.03;;
21301;SDS011;10810;48.270;9.996;2023-04-24T01:35:59;2.00;;;1.07;;
21301;SDS011;10810;48.270;9.996;2023-04-24T01:38:26;1.63;;;1.03;;
21301;SDS011;10810;48.270;9.996;2023-04-24T01:40:58;1.63;;;1.00;;
21301;SDS011;10810;48.270;9.996;2023-04-24T01:43:28;1.97;;;1.00;;
21301;SDS011;10810;48.270;9.996;2023-04-24T01:45:55;4.40;;;1.10;;
21301;SDS011;10810;48.270;9.996;2023-04-24T01:48:22;2.97;;;1.40;;
21301;SDS011;10810;48.270;9.996;2023-04-24T01:50:51;2.00;;;0.90;;
21301;SDS011;10810;48.270;9.996;2023-04-24T01:53:18;3.10;;;1.40;;
21301;SDS011;10810;48.270;9.996;2023-04-24T01:55:47;2.93;;;1.17;;
21301;SDS011;10810;48.270;9.996;2023-04-24T01:58:17;2.60;;;1.30;;
21301;SDS011;10810;48.270;9.996;2023-04-24T02:00:46;2.07;;;1.00;;
21301;SDS011;10810;48.270;9.996;2023-04-24T02:03:13;4.73;;;1.20;;
21301;SDS011;10810;48.270;9.996;2023-04-24T02:05:43;1.77;;;1.10;;
21301;SDS011;10810;48.270;9.996;2023-04-24T02:08:10;3.30;;;1.40;;
21301;SDS011;10810;48.270;9.996;2023-04-24T02:10:37;2.30;;;1.47;;
21301;SDS011;10810;48.270;9.996;2023-04-24T02:13:10;3.43;;;1.20;;
21301;SDS011;10810;48.270;9.996;2023-04-24T02:15:41;2.40;;;1.40;;
21301;SDS011;10810;48.270;9.996;2023-04-24T02:18:10;5.40;;;1.63;;
21301;SDS011;10810;48.270;9.996;2023-04-24T02:20:37;3.27;;;1.60;;
21301;SDS011;10810;48.270;9.996;2023-04-24T02:23:05;3.47;;;1.50;;
21301;SDS011;10810;48.270;9.996;2023-04-24T02:25:33;2.40;;;1.40;;
21301;SDS011;10810;48.270;9.996;2023-04-24T02:28:00;2.93;;;1.43;;
21301;SDS011;10810;48.270;9.996;2023-04-24T02:30:27;2.67;;;1.50;;
21301;SDS011;10810;48.270;9.996;2023-04-24T02:32:55;3.90;;;1.30;;
21301;SDS011;10810;48.270;9.996;2023-04-24T02:35:22;2.37;;;1.40;;
21301;SDS011;10810;48.270;9.996;2023-04-24T02:37:49;2.40;;;1.40;;
21301;SDS011;10810;48.270;9.996;2023-04-24T02:40:16;2.90;;;1.40;;
21301;SDS011;10810;48.270;9.996;2023-04-24T02:42:43;2.93;;;1.60;;
21301;SDS011;10810;48.270;9.996;2023-04-24T02:45:11;3.93;;;1.30;;
21301;SDS011;10810;48.270;9.996;2023-04-24T02:47:39;5.00;;;1.57;;
21301;SDS011;10810;48.270;9.996;2023-04-24T02:50:08;2.13;;;1.27;;
21301;SDS011;10810;48.270;9.996;2023-04-24T02:52:35;4.77;;;1.20;;
21301;SDS011;10810;48.270;9.996;2023-04-24T02:55:02;2.37;;;1.47;;
21301;SDS011;10810;48.270;9.996;2023-04-24T02:57:30;2.03;;;1.30;;
21301;SDS011;10810;48.270;9.996;2023-04-24T02:59:57;2.97;;;1.40;;
21301;SDS011;10810;48.270;9.996;2023-04-24T03:02:24;3.07;;;1.60;;
21301;SDS011;10810;48.270;9.996;2023-04-24T03:04:51;3.43;;;1.50;;
21301;SDS011;10810;48.270;9.996;2023-04-24T03:07:19;5.43;;;1.63;;
21301;SDS011;10810;48.270;9.996;2023-04-24T03:09:46;3.07;;;1.50;;
21301;SDS011;10810;48.270;9.996;2023-04-24T03:12:13;3.73;;;1.63;;
21301;SDS011;10810;48.270;9.996;2023-04-24T03:14:42;3.07;;;1.70;;
21301;SDS011;10810;48.270;9.996;2023-04-24T03:17:10;3.50;;;1.90;;
21301;SDS011;10810;48.270;9.996;2023-04-24T03:19:40;4.83;;;1.70;;
21301;SDS011;10810;48.270;9.996;2023-04-24T03:22:07;2.90;;;1.60;;
21301;SDS011;10810;48.270;9.996;2023-04-24T03:24:35;6.37;;;1.70;;
21301;SDS011;10810;48.270;9.996;2023-04-24T03:27:02;6.33;;;1.63;;
21301;SDS011;10810;48.270;9.996;2023-04-24T03:29:29;3.10;;;1.77;;
21301;SDS011;10810;48.270;9.996;2023-04-24T03:31:56;2.43;;;1.30;;
21301;SDS011;10810;48.270;9.996;2023-04-24T03:34:26;3.60;;;1.40;;
21301;SDS011;10810;48.270;9.996;2023-04-24T03:36:53;2.73;;;1.40;;
21301;SDS011;10810;48.270;9.996;2023-04-24T03:39:20;3.23;;;1.53;;
21301;SDS011;10810;48.270;9.996;2023-04-24T03:41:48;3.20;;;1.67;;
21301;SDS011;10810;48.270;9.996;2023-04-24T03:44:15;2.57;;;1.50;;
21301;SDS011;10810;48.270;9.996;2023-04-24T03:46:42;3.27;;;1.60;;
21301;SDS011;10810;48.270;9.996;2023-04-24T03:49:09;2.40;;;1.47;;
21301;SDS011;10810;48.270;9.996;2023-04-24T03:51:36;3.63;;;1.70;;
21301;SDS011;10810;48.270;9.996;2023-04-24T03:54:03;2.53;;;1.30;;
21301;SDS011;10810;48.270;9.996;2023-04-24T03:56:30;2.13;;;1.50;;
21301;SDS011;10810;48.270;9.996;2023-04-24T03:59:01;7.30;;;1.57;;
21301;SDS011;10810;48.270;9.996;2023-04-24T04:01:42;2.63;;;1.33;;
21301;SDS011;10810;48.270;9.996;2023-04-24T04:04:10;2.93;;;1.30;;
21301;SDS011;10810;48.270;9.996;2023-04-24T04:06:37;1.60;;;1.20;;
21301;SDS011;10810;48.270;9.996;2023-04-24T04:09:07;2.07;;;1.20;;
21301;SDS011;10810;48.270;9.996;2023-04-24T04:11:34;2.30;;;1.20;;
21301;SDS011;10810;48.270;9.996;2023-04-24T04:14:03;2.67;;;1.20;;
21301;SDS011;10810;48.270;9.996;2023-04-24T04:16:30;1.53;;;1.10;;
21301;SDS011;10810;48.270;9.996;2023-04-24T04:18:57;1.80;;;1.10;;
21301;SDS011;10810;48.270;9.996;2023-04-24T04:21:24;2.13;;;1.23;;
21301;SDS011;10810;48.270;9.996;2023-04-24T04:23:52;2.37;;;1.10;;
21301;SDS011;10810;48.270;9.996;2023-04-24T04:26:19;1.20;;;0.73;;
21301;SDS011;10810;48.270;9.996;2023-04-24T04:28:48;1.60;;;1.10;;
21301;SDS011;10810;48.270;9.996;2023-04-24T04:31:17;2.90;;;0.90;;
21301;SDS011;10810;48.270;9.996;2023-04-24T04:33:44;1.93;;;0.80;;
21301;SDS011;10810;48.270;9.996;2023-04-24T04:36:11;2.03;;;1.00;;
21301;SDS011;10810;48.270;9.996;2023-04-24T04:38:42;2.33;;;0.80;;
21301;SDS011;10810;48.270;9.996;2023-04-24T04:41:09;1.93;;;0.90;;
21301;SDS011;10810;48.270;9.996;2023-04-24T04:43:37;2.63;;;1.00;;
21301;SDS011;10810;48.270;9.996;2023-04-24T04:46:05;1.37;;;0.80;;
21301;SDS011;10810;48.270;9.996;2023-04-24T04:48:34;1.73;;;0.70;;
21301;SDS011;10810;48.270;9.996;2023-04-24T04:51:02;1.40;;;0.80;;
21301;SDS011;10810;48.270;9.996;2023-04-24T04:53:29;1.17;;;0.70;;
21301;SDS011;10810;48.270;9.996;2023-04-24T04:55:56;0.97;;;0.73;;
21301;SDS011;10810;48.270;9.996;2023-04-24T04:58:24;0.47;;;0.47;;
21301;SDS011;10810;48.270;9.996;2023-04-24T05:00:51;2.03;;;0.80;;
21301;SDS011;10810;48.270;9.996;2023-04-24T05:03:18;1.97;;;0.80;;
21301;SDS011;10810;48.270;9.996;2023-04-24T05:05:46;1.10;;;0.80;;
21301;SDS011;10810;48.270;9.996;2023-04-24T05:08:14;1.03;;;0.67;;
21301;SDS011;10810;48.270;9.996;2023-04-24T05:10:41;1.50;;;0.80;;
21301;SDS011;10810;48.270;9.996;2023-04-24T05:13:08;2.17;;;0.80;;
21301;SDS011;10810;48.270;9.996;2023-04-24T05:15:35;1.07;;;0.77;;
21301;SDS011;10810;48.270;9.996;2023-04-24T05:18:02;1.23;;;0.70;;
21301;SDS011;10810;48.270;9.996;2023-04-24T05:20:29;0.93;;;0.80;;
21301;SDS011;10810;48.270;9.996;2023-04-24T05:22:57;2.93;;;0.80;;
21301;SDS011;10810;48.270;9.996;2023-04-24T05:25:24;1.90;;;0.80;;
21301;SDS011;10810;48.270;9.996;2023-04-24T05:27:51;1.27;;;0.80;;
21301;SDS011;10810;48.270;9.996;2023-04-24T05:30:21;1.80;;;0.90;;
21301;SDS011;10810;48.270;9.996;2023-04-24T05:32:48;1.30;;;0.80;;
21301;SDS011;10810;48.270;9.996;2023-04-24T05:35:15;1.57;;;1.00;;
21301;SDS011;10810;48.270;9.996;2023-04-24T05:37:43;2.97;;;1.03;;
21301;SDS011;10810;48.270;9.996;2023-04-24T05:40:12;1.33;;;0.80;;
21301;SDS011;10810;48.270;9.996;2023-04-24T05:42:39;4.50;;;0.80;;
21301;SDS011;10810;48.270;9.996;2023-04-24T05:45:06;1.67;;;0.80;;
21301;SDS011;10810;48.270;9.996;2023-04-24T05:47:34;5.60;;;0.73;;
21301;SDS011;10810;48.270;9.996;2023-04-24T05:50:01;1.60;;;0.70;;
21301;SDS011;10810;48.270;9.996;2023-04-24T05:52:29;1.53;;;0.70;;
21301;SDS011;10810;48.270;9.996;2023-04-24T05:54:56;1.90;;;0.77;;
21301;SDS011;10810;48.270;9.996;2023-04-24T05:57:24;1.63;;;0.70;;
21301;SDS011;10810;48.270;9.996;2023-04-24T05:59:51;2.27;;;0.90;;
21301;SDS011;10810;48.270;9.996;2023-04-24T06:02:18;1.40;;;0.73;;
21301;SDS011;10810;48.270;9.996;2023-04-24T06:04:45;2.80;;;0.70;;
21301;SDS011;10810;48.270;9.996;2023-04-24T06:07:12;1.07;;;0.80;;
21301;SDS011;10810;48.270;9.996;2023-04-24T06:09:39;1.17;;;0.80;;
21301;SDS011;10810;48.270;9.996;2023-04-24T06:12:06;1.07;;;0.70;;
21301;SDS011;10810;48.270;9.996;2023-04-24T06:14:35;2.03;;;0.80;;
21301;SDS011;10810;48.270;9.996;2023-04-24T06:17:02;2.80;;;0.80;;
21301;SDS011;10810;48.270;9.996;2023-04-24T06:19:29;1.60;;;0.90;;
21301;SDS011;10810;48.270;9.996;2023-04-24T06:21:56;1.00;;;0.70;;
21301;SDS011;10810;48.270;9.996;2023-04-24T06:24:26;2.47;;;0.77;;
21301;SDS011;10810;48.270;9.996;2023-04-24T06:26:53;2.83;;;0.80;;
21301;SDS011;10810;48.270;9.996;2023-04-24T06:29:21;1.17;;;0.80;;
21301;SDS011;10810;48.270;9.996;2023-04-24T06:31:50;1.67;;;0.90;;
21301;SDS011;10810;48.270;9.996;2023-04-24T06:34:18;2.40;;;1.07;;
21301;SDS011;10810;48.270;9.996;2023-04-24T06:36:46;2.27;;;1.07;;
21301;SDS011;10810;48.270;9.996;2023-04-24T06:39:13;1.67;;;1.00;;
21301;SDS011;10810;48.270;9.996;2023-04-24T06:41:40;1.70;;;1.20;;
21301;SDS011;10810;48.270;9.996;2023-04-24T06:44:07;1.73;;;1.03;;
21301;SDS011;10810;48.270;9.996;2023-04-24T06:46:34;1.67;;;1.00;;
21301;SDS011;10810;48.270;9.996;2023-04-24T06:49:02;2.67;;;1.30;;
21301;SDS011;10810;48.270;9.996;2023-04-24T06:51:29;2.30;;;1.30;;
21301;SDS011;10810;48.270;9.996;2023-04-24T06:53:58;4.20;;;1.40;;
21301;SDS011;10810;48.270;9.996;2023-04-24T06:56:25;3.50;;;1.30;;
21301;SDS011;10810;48.270;9.996;2023-04-24T06:58:53;4.27;;;1.93;;
21301;SDS011;10810;48.270;9.996;2023-04-24T07:01:20;11.37;;;5.83;;
21301;SDS011;10810;48.270;9.996;2023-04-24T07:03:47;3.73;;;2.10;;
21301;SDS011;10810;48.270;9.996;2023-04-24T07:06:16;2.47;;;1.40;;
21301;SDS011;10810;48.270;9.996;2023-04-24T07:08:46;3.43;;;1.63;;
21301;SDS011;10810;48.270;9.996;2023-04-24T07:11:13;2.77;;;1.60;;
21301;SDS011;10810;48.270;9.996;2023-04-24T07:13:41;3.80;;;1.73;;
21301;SDS011;10810;48.270;9.996;2023-04-24T07:16:08;4.63;;;1.67;;
21301;SDS011;10810;48.270;9.996;2023-04-24T07:18:35;2.43;;;1.47;;
21301;SDS011;10810;48.270;9.996;2023-04-24T07:21:03;3.13;;;1.60;;
21301;SDS011;10810;48.270;9.996;2023-04-24T07:23:32;4.43;;;1.67;;
21301;SDS011;10810;48.270;9.996;2023-04-24T07:25:59;3.40;;;1.77;;
21301;SDS011;10810;48.270;9.996;2023-04-24T07:28:29;2.50;;;1.70;;
21301;SDS011;10810;48.270;9.996;2023-04-24T07:30:57;3.00;;;1.67;;
21301;SDS011;10810;48.270;9.996;2023-04-24T07:33:24;3.63;;;1.93;;
21301;SDS011;10810;48.270;9.996;2023-04-24T07:35:51;3.97;;;1.80;;
21301;SDS011;10810;48.270;9.996;2023-04-24T07:38:19;4.03;;;1.60;;
21301;SDS011;10810;48.270;9.996;2023-04-24T07:40:48;3.50;;;1.80;;
21301;SDS011;10810;48.270;9.996;2023-04-24T07:43:15;2.70;;;1.67;;
21301;SDS011;10810;48.270;9.996;2023-04-24T07:45:42;3.63;;;1.90;;
21301;SDS011;10810;48.270;9.996;2023-04-24T07:48:10;3.53;;;1.80;;
21301;SDS011;10810;48.270;9.996;2023-04-24T07:50:38;3.50;;;1.80;;
21301;SDS011;10810;48.270;9.996;2023-04-24T07:53:05;4.90;;;1.70;;
21301;SDS011;10810;48.270;9.996;2023-04-24T07:55:32;4.33;;;1.80;;
21301;SDS011;10810;48.270;9.996;2023-04-24T07:58:01;4.03;;;2.00;;
21301;SDS011;10810;48.270;9.996;2023-04-24T08:00:28;4.03;;;2.00;;
21301;SDS011;10810;48.270;9.996;2023-04-24T08:02:59;4.93;;;2.00;;
21301;SDS011;10810;48.270;9.996;2023-04-24T08:05:26;3.77;;;1.80;;
21301;SDS011;10810;48.270;9.996;2023-04-24T08:07:53;4.10;;;2.07;;
21301;SDS011;10810;48.270;9.996;2023-04-24T08:10:21;3.77;;;1.70;;
21301;SDS011;10810;48.270;9.996;2023-04-24T08:12:49;7.03;;;2.20;;
21301;SDS011;10810;48.270;9.996;2023-04-24T08:15:19;3.37;;;1.83;;
21301;SDS011;10810;48.270;9.996;2023-04-24T08:17:46;5.10;;;1.70;;
21301;SDS011;10810;48.270;9.996;2023-04-24T08:20:13;3.60;;;1.80;;
21301;SDS011;10810;48.270;9.996;2023-04-24T08:22:40;4.10;;;1.57;;
21301;SDS011;10810;48.270;9.996;2023-04-24T08:25:07;2.97;;;1.50;;
21301;SDS011;10810;48.270;9.996;2023-04-24T08:27:35;2.60;;;1.30;;
21301;SDS011;10810;48.270;9.996;2023-04-24T08:30:04;4.53;;;1.50;;
21301;SDS011;10810;48.270;9.996;2023-04-24T08:32:33;2.80;;;1.47;;
21301;SDS011;10810;48.270;9.996;2023-04-24T08:35:00;5.47;;;1.30;;
21301;SDS011;10810;48.270;9.996;2023-04-24T08:37:28;2.87;;;1.50;;
21301;SDS011;10810;48.270;9.996;2023-04-24T08:39:57;3.87;;;1.27;;
21301;SDS011;10810;48.270;9.996;2023-04-24T08:43:04;4.37;;;1.43;;
21301;SDS011;10810;48.270;9.996;2023-04-24T08:45:37;3.30;;;1.50;;
21301;SDS011;10810;48.270;9.996;2023-04-24T08:50:53;2.00;;;1.30;;
21301;SDS011;10810;48.270;9.996;2023-04-24T08:55:04;3.10;;;1.50;;
21301;SDS011;10810;48.270;9.996;2023-04-24T08:57:20;2.90;;;1.60;;
21301;SDS011;10810;48.270;9.996;2023-04-24T09:00:19;1.70;;;1.20;;
21301;SDS011;10810;48.270;9.996;2023-04-24T09:03:11;2.67;;;1.30;;
21301;SDS011;10810;48.270;9.996;2023-04-24T09:05:42;1.37;;;0.90;;
21301;SDS011;10810;48.270;9.996;2023-04-24T09:08:16;2.13;;;0.90;;
21301;SDS011;10810;48.270;9.996;2023-04-24T09:10:44;2.33;;;1.07;;
21301;SDS011;10810;48.270;9.996;2023-04-24T09:13:23;1.23;;;0.90;;
21301;SDS011;10810;48.270;9.996;2023-04-24T09:15:54;2.53;;;1.30;;
21301;SDS011;10810;48.270;9.996;2023-04-24T09:18:55;1.57;;;1.00;;
21301;SDS011;10810;48.270;9.996;2023-04-24T09:24:47;1.97;;;1.10;;
21301;SDS011;10810;48.270;9.996;2023-04-24T09:27:53;1.67;;;0.90;;
21301;SDS011;10810;48.270;9.996;2023-04-24T09:30:51;1.53;;;1.00;;
21301;SDS011;10810;48.270;9.996;2023-04-24T09:33:56;2.23;;;1.23;;
21301;SDS011;10810;48.270;9.996;2023-04-24T09:36:30;2.27;;;1.30;;
21301;SDS011;10810;48.270;9.996;2023-04-24T09:39:01;2.73;;;1.10;;
21301;SDS011;10810;48.270;9.996;2023-04-24T09:41:53;2.60;;;1.40;;
21301;SDS011;10810;48.270;9.996;2023-04-24T09:44:43;2.90;;;1.40;;
21301;SDS011;10810;48.270;9.996;2023-04-24T09:47:16;2.47;;;1.40;;
21301;SDS011;10810;48.270;9.996;2023-04-24T09:49:45;1.73;;;1.20;;
21301;SDS011;10810;48.270;9.996;2023-04-24T09:53:56;2.37;;;1.40;;
21301;SDS011;10810;48.270;9.996;2023-04-24T09:58:53;2.17;;;1.20;;
21301;SDS011;10810;48.270;9.996;2023-04-24T10:01:28;2.73;;;1.30;;
21301;SDS011;10810;48.270;9.996;2023-04-24T10:03:58;2.63;;;1.20;;
21301;SDS011;10810;48.270;9.996;2023-04-24T10:06:29;1.37;;;1.00;;
21301;SDS011;10810;48.270;9.996;2023-04-24T10:08:59;1.33;;;0.90;;
21301;SDS011;10810;48.270;9.996;2023-04-24T10:11:33;1.90;;;1.10;;
21301;SDS011;10810;48.270;9.996;2023-04-24T10:14:05;1.43;;;1.10;;
21301;SDS011;10810;48.270;9.996;2023-04-24T10:16:33;1.90;;;1.10;;
21301;SDS011;10810;48.270;9.996;2023-04-24T10:19:07;1.40;;;1.10;;
21301;SDS011;10810;48.270;9.996;2023-04-24T10:22:07;1.67;;;1.00;;
21301;SDS011;10810;48.270;9.996;2023-04-24T10:25:21;3.17;;;1.20;;
21301;SDS011;10810;48.270;9.996;2023-04-24T10:28:06;1.97;;;1.10;;
21301;SDS011;10810;48.270;9.996;2023-04-24T10:30:37;2.50;;;1.30;;
21301;SDS011;10810;48.270;9.996;2023-04-24T10:33:33;1.97;;;1.30;;
21301;SDS011;10810;48.270;9.996;2023-04-24T10:36:00;5.30;;;1.30;;
21301;SDS011;10810;48.270;9.996;2023-04-24T10:38:30;1.90;;;1.27;;
21301;SDS011;10810;48.270;9.996;2023-04-24T10:41:06;2.77;;;1.30;;
21301;SDS011;10810;48.270;9.996;2023-04-24T10:44:03;3.33;;;1.43;;
21301;SDS011;10810;48.270;9.996;2023-04-24T10:46:43;2.40;;;1.10;;
21301;SDS011;10810;48.270;9.996;2023-04-24T10:49:28;2.00;;;1.17;;
21301;SDS011;10810;48.270;9.996;2023-04-24T10:52:22;2.50;;;1.23;;
21301;SDS011;10810;48.270;9.996;2023-04-24T10:55:48;3.20;;;1.23;;
21301;SDS011;10810;48.270;9.996;2023-04-24T10:58:07;2.67;;;1.33;;
21301;SDS011;10810;48.270;9.996;2023-04-24T11:00:54;2.77;;;1.30;;
21301;SDS011;10810;48.270;9.996;2023-04-24T11:06:36;3.20;;;1.33;;
21301;SDS011;10810;48.270;9.996;2023-04-24T11:09:04;3.50;;;1.20;;
21301;SDS011;10810;48.270;9.996;2023-04-24T11:12:08;2.17;;;1.20;;
21301;SDS011;10810;48.270;9.996;2023-04-24T11:15:00;3.00;;;1.13;;
21301;SDS011;10810;48.270;9.996;2023-04-24T11:17:47;1.43;;;1.20;;
21301;SDS011;10810;48.270;9.996;2023-04-24T11:26:12;1.63;;;1.00;;
21301;SDS011;10810;48.270;9.996;2023-04-24T11:29:06;1.60;;;1.00;;
21301;SDS011;10810;48.270;9.996;2023-04-24T11:32:01;1.70;;;1.00;;
21301;SDS011;10810;48.270;9.996;2023-04-24T11:35:53;1.67;;;1.20;;
21301;SDS011;10810;48.270;9.996;2023-04-24T11:38:26;3.70;;;1.20;;
21301;SDS011;10810;48.270;9.996;2023-04-24T11:41:04;1.90;;;1.30;;
21301;SDS011;10810;48.270;9.996;2023-04-24T11:44:16;2.13;;;1.17;;
21301;SDS011;10810;48.270;9.996;2023-04-24T11:46:50;1.50;;;1.10;;
21301;SDS011;10810;48.270;9.996;2023-04-24T11:49:17;3.50;;;1.80;;
21301;SDS011;10810;48.270;9.996;2023-04-24T11:51:44;3.00;;;1.60;;
21301;SDS011;10810;48.270;9.996;2023-04-24T11:54:35;2.93;;;1.40;;
21301;SDS011;10810;48.270;9.996;2023-04-24T12:00:15;3.30;;;1.40;;
21301;SDS011;10810;48.270;9.996;2023-04-24T12:03:10;2.80;;;1.50;;
21301;SDS011;10810;48.270;9.996;2023-04-24T12:05:38;3.17;;;1.00;;
21301;SDS011;10810;48.270;9.996;2023-04-24T12:08:12;1.60;;;1.10;;
21301;SDS011;10810;48.270;9.996;2023-04-24T12:11:10;2.07;;;1.30;;
21301;SDS011;10810;48.270;9.996;2023-04-24T12:13:42;2.60;;;1.17;;
21301;SDS011;10810;48.270;9.996;2023-04-24T12:16:58;1.90;;;1.33;;
21301;SDS011;10810;48.270;9.996;2023-04-24T12:19:24;2.93;;;1.27;;
21301;SDS011;10810;48.270;9.996;2023-04-24T12:22:00;3.40;;;1.27;;
21301;SDS011;10810;48.270;9.996;2023-04-24T12:24:54;3.20;;;1.30;;
21301;SDS011;10810;48.270;9.996;2023-04-24T12:27:38;3.53;;;1.40;;
21301;SDS011;10810;48.270;9.996;2023-04-24T12:30:15;6.00;;;1.33;;
21301;SDS011;10810;48.270;9.996;2023-04-24T12:32:46;1.67;;;1.33;;
21301;SDS011;10810;48.270;9.996;2023-04-24T12:35:27;3.13;;;1.30;;
21301;SDS011;10810;48.270;9.996;2023-04-24T12:41:49;3.83;;;1.17;;
21301;SDS011;10810;48.270;9.996;2023-04-24T12:44:29;3.37;;;1.30;;
21301;SDS011;10810;48.270;9.996;2023-04-24T12:49:53;1.83;;;1.30;;
21301;SDS011;10810;48.270;9.996;2023-04-24T12:52:22;3.63;;;1.20;;
21301;SDS011;10810;48.270;9.996;2023-04-24T12:55:21;4.23;;;1.20;;
21301;SDS011;10810;48.270;9.996;2023-04-24T12:59:42;2.30;;;1.30;;
21301;SDS011;10810;48.270;9.996;2023-04-24T13:01:51;2.13;;;1.00;;
21301;SDS011;10810;48.270;9.996;2023-04-24T13:11:09;1.97;;;1.03;;
21301;SDS011;10810;48.270;9.996;2023-04-24T13:13:36;0.90;;;0.73;;
21301;SDS011;10810;48.270;9.996;2023-04-24T13:17:25;3.37;;;0.90;;
21301;SDS011;10810;48.270;9.996;2023-04-24T13:19:27;1.33;;;0.93;;
21301;SDS011;10810;48.270;9.996;2023-04-24T13:22:12;1.40;;;1.00;;
21301;SDS011;10810;48.270;9.996;2023-04-24T13:24:39;1.97;;;1.20;;
21301;SDS011;10810;48.270;9.996;2023-04-24T13:27:08;3.03;;;0.93;;
21301;SDS011;10810;48.270;9.996;2023-04-24T13:29:35;1.43;;;0.87;;
21301;SDS011;10810;48.270;9.996;2023-04-24T13:32:02;1.00;;;0.60;;
21301;SDS011;10810;48.270;9.996;2023-04-24T13:34:30;0.97;;;0.77;;
21301;SDS011;10810;48.270;9.996;2023-04-24T13:36:59;2.70;;;0.80;;
21301;SDS011;10810;48.270;9.996;2023-04-24T13:39:34;1.17;;;0.80;;
21301;SDS011;10810;48.270;9.996;2023-04-24T13:48:26;1.27;;;0.80;;
21301;SDS011;10810;48.270;9.996;2023-04-24T13:51:18;0.90;;;0.70;;
21301;SDS011;10810;48.270;9.996;2023-04-24T13:54:02;1.20;;;0.80;;
21301;SDS011;10810;48.270;9.996;2023-04-24T13:56:31;1.00;;;0.63;;
21301;SDS011;10810;48.270;9.996;2023-04-24T13:59:27;1.20;;;0.90;;
21301;SDS011;10810;48.270;9.996;2023-04-24T14:02:27;1.00;;;0.70;;
21301;SDS011;10810;48.270;9.996;2023-04-24T14:05:05;1.47;;;0.90;;
21301;SDS011;10810;48.270;9.996;2023-04-24T14:08:01;1.37;;;0.80;;
21301;SDS011;10810;48.270;9.996;2023-04-24T14:10:33;2.40;;;0.90;;
21301;SDS011;10810;48.270;9.996;2023-04-24T14:13:22;1.47;;;0.77;;
21301;SDS011;10810;48.270;9.996;2023-04-24T14:15:50;1.17;;;0.80;;
21301;SDS011;10810;48.270;9.996;2023-04-24T14:18:17;3.37;;;0.80;;
21301;SDS011;10810;48.270;9.996;2023-04-24T14:20:46;2.90;;;0.90;;
21301;SDS011;10810;48.270;9.996;2023-04-24T14:23:16;0.97;;;0.70;;
21301;SDS011;10810;48.270;9.996;2023-04-24T14:25:49;1.50;;;0.70;;
21301;SDS011;10810;48.270;9.996;2023-04-24T14:28:37;1.67;;;0.90;;
21301;SDS011;10810;48.270;9.996;2023-04-24T14:31:48;1.33;;;0.80;;
21301;SDS011;10810;48.270;9.996;2023-04-24T14:40:06;1.43;;;0.70;;
21301;SDS011;10810;48.270;9.996;2023-04-24T14:42:34;1.20;;;0.80;;
21301;SDS011;10810;48.270;9.996;2023-04-24T14:45:01;1.00;;;0.73;;
21301;SDS011;10810;48.270;9.996;2023-04-24T14:47:33;2.13;;;0.77;;
21301;SDS011;10810;48.270;9.996;2023-04-24T14:50:28;1.20;;;1.00;;
21301;SDS011;10810;48.270;9.996;2023-04-24T14:56:13;1.50;;;0.97;;
21301;SDS011;10810;48.270;9.996;2023-04-24T14:59:11;2.23;;;1.10;;
21301;SDS011;10810;48.270;9.996;2023-04-24T15:01:40;1.80;;;1.00;;
21301;SDS011;10810;48.270;9.996;2023-04-24T15:04:08;2.53;;;1.00;;
21301;SDS011;10810;48.270;9.996;2023-04-24T15:06:46;3.97;;;1.60;;
21301;SDS011;10810;48.270;9.996;2023-04-24T15:09:24;2.40;;;1.00;;
21301;SDS011;10810;48.270;9.996;2023-04-24T15:11:53;2.20;;;0.80;;
21301;SDS011;10810;48.270;9.996;2023-04-24T15:14:24;1.37;;;0.90;;
21301;SDS011;10810;48.270;9.996;2023-04-24T15:17:07;1.43;;;0.80;;
21301;SDS011;10810;48.270;9.996;2023-04-24T15:19:55;1.30;;;0.70;;
21301;SDS011;10810;48.270;9.996;2023-04-24T15:22:35;1.33;;;0.83;;
21301;SDS011;10810;48.270;9.996;2023-04-24T15:25:08;2.10;;;0.70;;
21301;SDS011;10810;48.270;9.996;2023-04-24T15:29:21;1.93;;;0.73;;
21301;SDS011;10810;48.270;9.996;2023-04-24T15:31:25;3.57;;;0.70;;
21301;SDS011;10810;48.270;9.996;2023-04-24T15:33:38;1.03;;;0.70;;
21301;SDS011;10810;48.270;9.996;2023-04-24T15:36:15;2.17;;;0.90;;
21301;SDS011;10810;48.270;9.996;2023-04-24T15:39:23;1.50;;;0.73;;
21301;SDS011;10810;48.270;9.996;2023-04-24T15:45:14;2.47;;;0.93;;
21301;SDS011;10810;48.270;9.996;2023-04-24T15:47:46;1.97;;;1.27;;
21301;SDS011;10810;48.270;9.996;2023-04-24T15:50:15;2.23;;;1.30;;
21301;SDS011;10810;48.270;9.996;2023-04-24T15:52:43;1.80;;;0.97;;
21301;SDS011;10810;48.270;9.996;2023-04-24T15:58:30;1.37;;;0.80;;
21301;SDS011;10810;48.270;9.996;2023-04-24T16:08:01;2.10;;;1.00;;
21301;SDS011;10810;48.270;9.996;2023-04-24T16:10:38;1.90;;;1.10;;
21301;SDS011;10810;48.270;9.996;2023-04-24T16:17:16;0.97;;;0.73;;
21301;SDS011;10810;48.270;9.996;2023-04-24T16:19:45;2.43;;;1.20;;
21301;SDS011;10810;48.270;9.996;2023-04-24T16:22:59;1.83;;;1.17;;
21301;SDS011;10810;48.270;9.996;2023-04-24T16:42:38;3.33;;;0.90;;
21301;SDS011;10810;48.270;9.996;2023-04-24T17:05:22;1.50;;;0.93;;
21301;SDS011;10810;48.270;9.996;2023-04-24T17:08:03;2.00;;;1.20;;
21301;SDS011;10810;48.270;9.996;2023-04-24T17:13:34;1.90;;;1.00;;
21301;SDS011;10810;48.270;9.996;2023-04-24T17:16:16;2.40;;;1.10;;